createdAt,value
2019-05-26T00:00:36.062Z,100970.99
2019-05-26T00:03:06.028Z,100967.80
2019-05-26T00:05:35.925Z,100959.70
2019-05-26T00:08:05.890Z,100958.84
2019-05-26T00:10:35.933Z,100958.97
2019-05-26T00:13:06.059Z,100960.95
2019-05-26T00:15:36.347Z,100955.41
2019-05-26T00:18:06.256Z,100956.09
2019-05-26T00:20:36.203Z,100948.66
2019-05-26T00:23:06.186Z,100944.34
2019-05-26T00:25:36.451Z,100945.60
2019-05-26T00:28:06.494Z,100946.50
2019-05-26T00:30:36.387Z,100939.83
2019-05-26T00:33:06.362Z,100933.00
2019-05-26T00:35:36.550Z,100934.88
2019-05-26T00:38:06.626Z,100935.11
2019-05-26T00:40:36.530Z,100927.91
2019-05-26T00:43:06.532Z,100925.02
2019-05-26T00:45:37.151Z,100919.44
2019-05-26T00:48:07.495Z,100918.05
2019-05-26T00:50:37.404Z,100919.44
2019-05-26T00:53:07.428Z,100915.89
2019-05-26T00:55:37.469Z,100919.48
2019-05-26T00:58:07.564Z,100912.12
2019-05-26T01:00:41.899Z,100913.38
2019-05-26T01:03:12.776Z,100920.39
2019-05-26T01:05:42.790Z,100916.61
2019-05-26T01:08:12.881Z,100907.38
2019-05-26T01:10:42.926Z,100904.50
2019-05-26T01:13:12.793Z,100897.30
2019-05-26T01:15:44.450Z,100893.58
2019-05-26T01:18:14.293Z,100905.91
2019-05-26T01:20:44.308Z,100898.93
2019-05-26T01:23:15.238Z,100893.98
2019-05-26T01:25:45.052Z,100893.67
2019-05-26T01:28:15.056Z,100889.53
2019-05-26T01:30:45.472Z,100895.02
2019-05-26T01:33:15.653Z,100880.93
2019-05-26T01:35:46.135Z,100887.45
2019-05-26T01:38:23.961Z,100886.82
2019-05-26T01:40:48.561Z,100881.78
2019-05-26T01:43:18.962Z,100881.61
2019-05-26T01:45:48.974Z,100877.02
2019-05-26T01:48:19.506Z,100877.33
2019-05-26T01:50:49.307Z,100877.69
2019-05-26T01:53:19.215Z,100874.72
2019-05-26T01:55:49.454Z,100875.31
2019-05-26T01:58:19.582Z,100866.80
2019-05-26T02:00:49.527Z,100876.43
2019-05-26T02:03:19.394Z,100874.00
2019-05-26T02:05:49.475Z,100870.45
2019-05-26T02:08:19.514Z,100870.22
2019-05-26T02:10:49.810Z,100871.25
2019-05-26T02:13:21.530Z,100861.13
2019-05-26T02:15:51.336Z,100866.53
2019-05-26T02:18:21.402Z,100866.39
2019-05-26T02:20:51.349Z,100860.81
2019-05-26T02:23:21.270Z,100863.20
2019-05-26T02:25:51.152Z,100847.35
2019-05-26T02:28:21.123Z,100858.07
2019-05-26T02:30:51.010Z,100851.50
2019-05-26T02:33:21.017Z,100853.12
2019-05-26T02:35:52.030Z,100851.86
2019-05-26T02:38:25.879Z,100844.58
2019-05-26T02:40:53.521Z,100847.98
2019-05-26T02:43:23.315Z,100844.97
2019-05-26T02:45:53.237Z,100850.09
2019-05-26T02:48:23.063Z,100850.02
2019-05-26T02:50:53.029Z,100845.83
2019-05-26T02:53:28.074Z,100841.73
2019-05-26T02:55:58.737Z,100843.53
2019-05-26T02:58:28.677Z,100840.56
2019-05-26T03:00:58.856Z,100832.11
2019-05-26T03:03:28.812Z,100830.48
2019-05-26T03:05:59.473Z,100835.27
2019-05-26T03:08:29.879Z,100834.00
2019-05-26T03:11:01.323Z,100828.52
2019-05-26T03:13:35.702Z,100818.16
2019-05-26T03:16:06.114Z,100822.30
2019-05-26T03:18:38.606Z,100819.92
2019-05-26T03:21:09.977Z,100818.39
2019-05-26T03:23:41.997Z,100815.50
2019-05-26T03:26:12.578Z,100818.98
2019-05-26T03:28:42.714Z,100820.23
2019-05-26T03:31:12.678Z,100818.25
2019-05-26T03:33:42.561Z,100815.82
2019-05-26T03:36:12.612Z,100808.53
2019-05-26T03:38:42.854Z,100807.28
2019-05-26T03:41:13.719Z,100806.69
2019-05-26T03:43:43.848Z,100805.34
2019-05-26T03:46:22.956Z,100806.14
2019-05-26T03:48:52.808Z,100805.38
2019-05-26T03:51:23.762Z,100799.62
2019-05-26T03:53:53.533Z,100798.86
2019-05-26T03:56:24.019Z,100795.16
2019-05-26T03:58:54.936Z,100800.01
2019-05-26T04:01:24.878Z,100800.81
2019-05-26T04:03:54.671Z,100791.55
2019-05-26T04:06:24.466Z,100799.95
2019-05-26T04:08:54.321Z,100796.84
2019-05-26T04:11:24.080Z,100790.31
2019-05-26T04:13:54.098Z,100791.84
2019-05-26T04:16:24.279Z,100782.78
2019-05-26T04:18:54.080Z,100786.14
2019-05-26T04:21:23.921Z,100778.11
2019-05-26T04:23:54.167Z,100777.88
2019-05-26T04:26:24.029Z,100781.92
2019-05-26T04:28:53.840Z,100786.37
2019-05-26T04:31:23.738Z,100781.00
2019-05-26T04:33:53.510Z,100777.64
2019-05-26T04:36:23.346Z,100777.28
2019-05-26T04:38:53.499Z,100773.66
2019-05-26T04:41:23.364Z,100767.38
2019-05-26T04:43:53.187Z,100775.94
2019-05-26T04:46:23.166Z,100772.83
2019-05-26T04:48:53.524Z,100769.75
2019-05-26T04:51:23.710Z,100767.80
2019-05-26T04:53:53.599Z,100775.97
2019-05-26T04:56:23.594Z,100770.33
2019-05-26T04:58:53.591Z,100767.82
2019-05-26T05:01:23.477Z,100768.73
2019-05-26T05:03:53.408Z,100757.66
2019-05-26T05:06:23.633Z,100762.19
2019-05-26T05:08:53.531Z,100752.00
2019-05-26T05:11:23.435Z,100760.73
2019-05-26T05:13:54.404Z,100760.00
2019-05-26T05:16:24.653Z,100757.48
2019-05-26T05:18:54.778Z,100751.98
2019-05-26T05:21:24.527Z,100749.13
2019-05-26T05:23:54.469Z,100745.50
2019-05-26T05:26:25.343Z,100745.00
2019-05-26T05:28:55.296Z,100749.95
2019-05-26T05:31:25.186Z,100745.94
2019-05-26T05:33:55.153Z,100745.54
2019-05-26T05:36:25.933Z,100731.63
2019-05-26T05:38:55.913Z,100733.27
2019-05-26T05:41:26.083Z,100738.75
2019-05-26T05:43:55.920Z,100733.45
2019-05-26T05:46:25.961Z,100732.48
2019-05-26T05:48:55.821Z,100726.11
2019-05-26T05:51:25.713Z,100727.97
2019-05-26T05:53:56.269Z,100731.03
2019-05-26T05:56:26.238Z,100724.80
2019-05-26T05:58:56.202Z,100724.56
2019-05-26T06:01:26.049Z,100724.42
2019-05-26T06:03:57.594Z,100729.08
2019-05-26T06:06:27.517Z,100730.00
2019-05-26T06:08:57.452Z,100731.75
2019-05-26T06:11:27.284Z,100725.66
2019-05-26T06:13:57.243Z,100728.94
2019-05-26T06:16:27.247Z,100736.48
2019-05-26T06:18:57.217Z,100734.31
2019-05-26T06:21:27.558Z,100740.30
2019-05-26T06:23:58.054Z,100732.64
2019-05-26T06:26:27.868Z,100736.83
2019-05-26T06:28:57.867Z,100730.85
2019-05-26T06:31:27.935Z,100728.97
2019-05-26T06:33:58.121Z,100729.16
2019-05-26T06:36:27.958Z,100729.53
2019-05-26T06:38:57.965Z,100734.47
2019-05-26T06:41:33.350Z,100723.56
2019-05-26T06:44:01.267Z,100722.59
2019-05-26T06:46:31.501Z,100722.52
2019-05-26T06:49:01.470Z,100713.79
2019-05-26T06:51:31.615Z,100715.89
2019-05-26T06:54:02.071Z,100711.55
2019-05-26T06:56:32.032Z,100711.01
2019-05-26T06:59:03.208Z,100718.19
2019-05-26T07:01:33.185Z,100700.91
2019-05-26T07:04:03.076Z,100719.86
2019-05-26T07:06:33.200Z,100717.47
2019-05-26T07:09:05.777Z,100719.25
2019-05-26T07:11:50.088Z,100718.36
2019-05-26T07:14:07.624Z,100715.70
2019-05-26T07:16:38.860Z,100717.28
2019-05-26T07:19:08.870Z,100716.70
2019-05-26T07:21:39.192Z,100717.09
2019-05-26T07:24:09.825Z,100715.84
2019-05-26T07:26:40.040Z,100715.89
2019-05-26T07:29:09.909Z,100715.92
2019-05-26T07:31:40.045Z,100718.14
2019-05-26T07:34:10.300Z,100705.33
2019-05-26T07:36:40.101Z,100712.44
2019-05-26T07:39:10.515Z,100706.07
2019-05-26T07:41:40.445Z,100704.34
2019-05-26T07:44:10.449Z,100701.52
2019-05-26T07:46:40.340Z,100706.46
2019-05-26T07:49:10.152Z,100705.25
2019-05-26T07:51:39.977Z,100704.53
2019-05-26T07:54:24.658Z,100701.47
2019-05-26T07:56:41.846Z,100694.87
2019-05-26T07:59:11.720Z,100703.64
2019-05-26T08:01:42.080Z,100715.66
2019-05-26T08:04:12.047Z,100719.05
2019-05-26T08:06:42.333Z,100705.14
2019-05-26T08:09:13.092Z,100709.80
2019-05-26T08:11:42.948Z,100706.33
2019-05-26T08:14:12.835Z,100702.66
2019-05-26T08:16:42.675Z,100698.84
2019-05-26T08:19:12.696Z,100692.48
2019-05-26T08:21:42.567Z,100704.92
2019-05-26T08:24:12.886Z,100689.56
2019-05-26T08:26:43.874Z,100684.41
2019-05-26T08:29:13.710Z,100689.39
2019-05-26T08:31:43.574Z,100680.86
2019-05-26T08:34:13.468Z,100678.16
2019-05-26T08:36:43.280Z,100675.00
2019-05-26T08:39:13.423Z,100670.61
2019-05-26T08:41:43.436Z,100669.62
2019-05-26T08:44:13.496Z,100672.77
2019-05-26T08:46:43.641Z,100672.03
2019-05-26T08:49:13.692Z,100669.28
2019-05-26T08:51:43.686Z,100675.28
2019-05-26T08:54:13.616Z,100679.20
2019-05-26T08:56:43.413Z,100672.81
2019-05-26T08:59:13.304Z,100669.20
2019-05-26T09:01:43.088Z,100660.39
2019-05-26T09:04:13.266Z,100664.41
2019-05-26T09:06:43.727Z,100674.71
2019-05-26T09:09:17.469Z,100669.07
2019-05-26T09:11:48.316Z,100664.30
2019-05-26T09:14:18.215Z,100663.31
2019-05-26T09:16:48.096Z,100655.03
2019-05-26T09:19:18.212Z,100663.13
2019-05-26T09:21:48.031Z,100666.00
2019-05-26T09:24:18.351Z,100664.28
2019-05-26T09:26:48.237Z,100646.80
2019-05-26T09:29:18.072Z,100645.05
2019-05-26T09:31:48.406Z,100647.99
2019-05-26T09:34:18.424Z,100648.88
2019-05-26T09:36:48.262Z,100646.72
2019-05-26T09:39:18.575Z,100646.84
2019-05-26T09:41:57.932Z,100651.89
2019-05-26T09:44:28.071Z,100656.00
2019-05-26T09:46:57.963Z,100647.63
2019-05-26T09:49:28.020Z,100648.59
2019-05-26T09:51:58.004Z,100647.16
2019-05-26T09:54:28.609Z,100634.53
2019-05-26T09:56:58.509Z,100644.29
2019-05-26T09:59:28.384Z,100642.07
2019-05-26T10:01:58.519Z,100640.70
2019-05-26T10:04:28.382Z,100647.13
2019-05-26T10:06:58.339Z,100643.22
2019-05-26T10:09:28.299Z,100637.66
2019-05-26T10:11:58.580Z,100643.08
2019-05-26T10:14:28.590Z,100640.41
2019-05-26T10:16:58.563Z,100641.46
2019-05-26T10:19:28.500Z,100644.72
2019-05-26T10:21:58.570Z,100637.47
2019-05-26T10:24:28.566Z,100638.91
2019-05-26T10:26:58.503Z,100623.34
2019-05-26T10:29:28.372Z,100608.95
2019-05-26T10:31:58.588Z,100624.03
2019-05-26T10:34:28.378Z,100615.23
2019-05-26T10:36:58.425Z,100621.27
2019-05-26T10:39:28.341Z,100611.88
2019-05-26T10:41:59.237Z,100613.61
2019-05-26T10:44:29.003Z,100608.80
2019-05-26T10:46:59.243Z,100593.05
2019-05-26T10:49:29.407Z,100606.53
2019-05-26T10:51:59.456Z,100610.45
2019-05-26T10:54:29.485Z,100602.08
2019-05-26T10:56:59.241Z,100601.44
2019-05-26T10:59:31.133Z,100604.89
2019-05-26T11:02:00.896Z,100599.55
2019-05-26T11:04:30.707Z,100598.09
2019-05-26T11:07:00.895Z,100599.11
2019-05-26T11:09:31.814Z,100594.62
2019-05-26T11:12:02.264Z,100599.54
2019-05-26T11:14:32.179Z,100589.81
2019-05-26T11:17:02.655Z,100593.47
2019-05-26T11:19:32.553Z,100583.55
2019-05-26T11:22:02.500Z,100581.31
2019-05-26T11:24:32.405Z,100583.23
2019-05-26T11:27:10.020Z,100578.34
2019-05-26T11:29:34.408Z,100571.90
2019-05-26T11:32:04.506Z,100573.24
2019-05-26T11:34:34.520Z,100569.98
2019-05-26T11:37:04.657Z,100560.61
2019-05-26T11:39:34.484Z,100554.42
2019-05-26T11:42:12.821Z,100556.43
2019-05-26T11:44:36.032Z,100551.17
2019-05-26T11:47:06.534Z,100555.06
2019-05-26T11:49:36.433Z,100551.12
2019-05-26T11:52:06.550Z,100549.24
2019-05-26T11:54:36.663Z,100550.92
2019-05-26T11:57:06.603Z,100547.14
2019-05-26T11:59:37.539Z,100539.52
2019-05-26T12:02:07.436Z,100543.11
2019-05-26T12:04:37.787Z,100536.11
2019-05-26T12:07:07.738Z,100522.73
2019-05-26T12:09:37.606Z,100527.98
2019-05-26T12:12:07.633Z,100532.27
2019-05-26T12:14:37.686Z,100527.97
2019-05-26T12:17:07.526Z,100525.92
2019-05-26T12:19:37.466Z,100529.70
2019-05-26T12:22:08.323Z,100522.41
2019-05-26T12:24:38.642Z,100518.50
2019-05-26T12:27:08.576Z,100517.44
2019-05-26T12:29:38.990Z,100520.40
2019-05-26T12:32:09.295Z,100524.45
2019-05-26T12:34:39.229Z,100514.92
2019-05-26T12:37:09.199Z,100506.97
2019-05-26T12:39:39.572Z,100510.88
2019-05-26T12:42:20.968Z,100513.11
2019-05-26T12:44:51.153Z,100497.36
2019-05-26T12:47:22.199Z,100499.94
2019-05-26T12:49:52.289Z,100506.67
2019-05-26T12:52:22.306Z,100491.46
2019-05-26T12:54:52.926Z,100494.13
2019-05-26T12:57:22.958Z,100490.75
2019-05-26T12:59:52.976Z,100488.81
2019-05-26T13:02:22.927Z,100485.17
2019-05-26T13:04:54.287Z,100497.25
2019-05-26T13:07:25.415Z,100497.72
2019-05-26T13:09:55.543Z,100496.27
2019-05-26T13:12:26.369Z,100494.20
2019-05-26T13:15:05.479Z,100497.89
2019-05-26T13:17:27.918Z,100482.48
2019-05-26T13:19:57.971Z,100486.00
2019-05-26T13:22:27.913Z,100492.30
2019-05-26T13:24:58.380Z,100489.40
2019-05-26T13:27:28.426Z,100487.17
2019-05-26T13:29:58.850Z,100482.59
2019-05-26T13:32:29.136Z,100484.53
2019-05-26T13:34:59.056Z,100472.30
2019-05-26T13:37:28.901Z,100470.56
2019-05-26T13:39:58.864Z,100464.20
2019-05-26T13:42:28.856Z,100472.61
2019-05-26T13:44:58.902Z,100467.61
2019-05-26T13:47:28.860Z,100464.14
2019-05-26T13:49:58.938Z,100459.80
2019-05-26T13:52:29.924Z,100467.60
2019-05-26T13:54:59.914Z,100451.72
2019-05-26T13:57:30.125Z,100456.80
2019-05-26T13:59:59.933Z,100454.14
2019-05-26T14:02:30.295Z,100449.29
2019-05-26T14:05:00.581Z,100452.42
2019-05-26T14:07:30.527Z,100447.58
2019-05-26T14:10:00.348Z,100441.22
2019-05-26T14:12:30.247Z,100444.52
2019-05-26T14:15:03.517Z,100434.00
2019-05-26T14:17:34.828Z,100432.17
2019-05-26T14:20:07.622Z,100445.04
2019-05-26T14:22:37.915Z,100435.81
2019-05-26T14:25:08.056Z,100426.98
2019-05-26T14:27:38.233Z,100425.56
2019-05-26T14:30:08.661Z,100427.86
2019-05-26T14:32:38.463Z,100420.77
2019-05-26T14:35:10.135Z,100413.23
2019-05-26T14:37:39.950Z,100414.70
2019-05-26T14:40:09.902Z,100422.55
2019-05-26T14:42:39.665Z,100425.84
2019-05-26T14:45:09.693Z,100421.38
2019-05-26T14:47:39.919Z,100406.32
2019-05-26T14:50:11.918Z,100408.50
2019-05-26T14:52:42.096Z,100417.08
2019-05-26T14:55:13.242Z,100408.62
2019-05-26T14:57:43.088Z,100410.84
2019-05-26T15:00:13.702Z,100399.79
2019-05-26T15:02:43.959Z,100400.06
2019-05-26T15:05:14.477Z,100401.41
2019-05-26T15:07:44.336Z,100403.77
2019-05-26T15:10:14.466Z,100394.67
2019-05-26T15:12:44.474Z,100393.43
2019-05-26T15:15:15.968Z,100400.23
2019-05-26T15:17:46.900Z,100390.54
2019-05-26T15:20:17.146Z,100376.16
2019-05-26T15:22:47.999Z,100377.11
2019-05-26T15:25:18.034Z,100374.48
2019-05-26T15:27:48.393Z,100371.16
2019-05-26T15:30:18.432Z,100373.16
2019-05-26T15:32:48.917Z,100373.16
2019-05-26T15:35:19.322Z,100369.83
2019-05-26T15:37:49.245Z,100374.10
2019-05-26T15:40:19.467Z,100360.23
2019-05-26T15:42:49.424Z,100362.39
2019-05-26T15:45:20.794Z,100361.49
2019-05-26T15:47:50.838Z,100362.66
2019-05-26T15:50:21.329Z,100365.15
2019-05-26T15:52:51.364Z,100366.56
2019-05-26T15:55:22.180Z,100353.47
2019-05-26T15:57:52.040Z,100350.56
2019-05-26T16:00:22.629Z,100338.91
2019-05-26T16:02:52.385Z,100334.91
2019-05-26T16:05:22.363Z,100339.55
2019-05-26T16:07:52.300Z,100349.74
2019-05-26T16:10:23.601Z,100331.97
2019-05-26T16:12:54.305Z,100339.48
2019-05-26T16:15:24.184Z,100326.66
2019-05-26T16:17:54.236Z,100330.14
2019-05-26T16:20:24.559Z,100331.03
2019-05-26T16:22:55.758Z,100326.13
2019-05-26T16:25:25.715Z,100323.68
2019-05-26T16:27:55.707Z,100323.34
2019-05-26T16:30:25.933Z,100318.55
2019-05-26T16:32:56.192Z,100324.57
2019-05-26T16:35:27.370Z,100327.53
2019-05-26T16:37:57.137Z,100317.95
2019-05-26T16:40:26.937Z,100319.11
2019-05-26T16:42:56.924Z,100316.83
2019-05-26T16:45:26.687Z,100316.77
2019-05-26T16:47:56.555Z,100313.04
2019-05-26T16:50:26.531Z,100304.34
2019-05-26T16:52:56.435Z,100299.43
2019-05-26T16:55:26.394Z,100295.42
2019-05-26T16:57:56.330Z,100286.12
2019-05-26T17:00:27.079Z,100286.61
2019-05-26T17:02:57.773Z,100285.06
2019-05-26T17:05:29.641Z,100280.33
2019-05-26T17:08:00.028Z,100278.75
2019-05-26T17:10:30.111Z,100274.56
2019-05-26T17:13:00.024Z,100278.80
2019-05-26T17:15:31.778Z,100274.09
2019-05-26T17:18:01.554Z,100278.94
2019-05-26T17:20:32.057Z,100281.89
2019-05-26T17:23:02.054Z,100277.78
2019-05-26T17:25:31.852Z,100267.68
2019-05-26T17:28:01.649Z,100258.63
2019-05-26T17:30:32.756Z,100283.56
2019-05-26T17:33:02.577Z,100276.88
2019-05-26T17:35:32.571Z,100276.58
2019-05-26T17:38:02.512Z,100282.66
2019-05-26T17:40:32.322Z,100280.23
2019-05-26T17:43:02.115Z,100272.66
2019-05-26T17:45:32.156Z,100282.82
2019-05-26T17:48:01.941Z,100275.54
2019-05-26T17:50:32.216Z,100275.47
2019-05-26T17:53:02.142Z,100275.87
2019-05-26T17:55:32.154Z,100277.97
2019-05-26T17:58:02.002Z,100269.11
2019-05-26T18:00:32.085Z,100282.30
2019-05-26T18:03:02.494Z,100279.92
2019-05-26T18:05:32.719Z,100269.06
2019-05-26T18:08:02.635Z,100263.82
2019-05-26T18:10:34.185Z,100267.91
2019-05-26T18:13:04.688Z,100269.91
2019-05-26T18:15:34.942Z,100265.91
2019-05-26T18:18:04.951Z,100265.31
2019-05-26T18:20:35.986Z,100270.26
2019-05-26T18:23:05.934Z,100271.08
2019-05-26T18:25:35.952Z,100265.86
2019-05-26T18:28:06.020Z,100261.00
2019-05-26T18:30:36.103Z,100267.26
2019-05-26T18:33:06.539Z,100269.64
2019-05-26T18:35:36.507Z,100234.67
2019-05-26T18:38:08.390Z,100266.48
2019-05-26T18:40:38.286Z,100260.88
2019-05-26T18:43:08.173Z,100266.71
2019-05-26T18:45:38.483Z,100259.80
2019-05-26T18:48:09.593Z,100258.02
2019-05-26T18:50:40.585Z,100257.56
2019-05-26T18:53:10.966Z,100252.77
2019-05-26T18:55:41.519Z,100242.87
2019-05-26T18:58:11.476Z,100246.53
2019-05-26T19:00:41.660Z,100250.36
2019-05-26T19:03:11.830Z,100254.02
2019-05-26T19:05:41.937Z,100251.40
2019-05-26T19:08:12.731Z,100253.06
2019-05-26T19:10:42.897Z,100251.72
2019-05-26T19:13:13.122Z,100244.31
2019-05-26T19:15:43.191Z,100248.92
2019-05-26T19:18:19.824Z,100243.28
2019-05-26T19:20:45.076Z,100241.11
2019-05-26T19:23:15.050Z,100244.81
2019-05-26T19:25:45.047Z,100244.70
2019-05-26T19:28:15.118Z,100242.89
2019-05-26T19:30:45.813Z,100245.77
2019-05-26T19:33:16.079Z,100237.94
2019-05-26T19:35:46.021Z,100240.03
2019-05-26T19:38:16.184Z,100233.78
2019-05-26T19:40:46.216Z,100202.78
2019-05-26T19:43:16.198Z,100235.80
2019-05-26T19:45:46.683Z,100231.91
2019-05-26T19:48:17.034Z,100237.72
2019-05-26T19:50:47.099Z,100241.06
2019-05-26T19:53:17.112Z,100241.38
2019-05-26T19:55:47.050Z,100208.06
2019-05-26T19:58:17.046Z,100233.50
2019-05-26T20:00:47.355Z,100236.83
2019-05-26T20:03:17.295Z,100238.43
2019-05-26T20:05:47.503Z,100236.69
2019-05-26T20:08:23.479Z,100242.19
2019-05-26T20:10:53.390Z,100238.78
2019-05-26T20:13:23.289Z,100230.16
2019-05-26T20:15:53.500Z,100227.11
2019-05-26T20:18:23.414Z,100224.09
2019-05-26T20:20:53.338Z,100225.69
2019-05-26T20:23:23.252Z,100228.14
2019-05-26T20:25:53.096Z,100217.85
2019-05-26T20:28:22.891Z,100223.38
2019-05-26T20:30:53.168Z,100220.27
2019-05-26T20:33:22.982Z,100218.91
2019-05-26T20:35:52.808Z,100226.97
2019-05-26T20:38:22.926Z,100220.44
2019-05-26T20:40:52.729Z,100219.63
2019-05-26T20:43:25.047Z,100220.25
2019-05-26T20:45:54.060Z,100212.98
2019-05-26T20:48:23.911Z,100215.47
2019-05-26T20:50:53.870Z,100208.12
2019-05-26T20:53:23.678Z,100211.49
2019-05-26T20:55:53.571Z,100214.83
2019-05-26T20:58:23.400Z,100204.94
2019-05-26T21:00:53.495Z,100204.47
2019-05-26T21:03:23.500Z,100201.42
2019-05-26T21:05:53.479Z,100200.56
2019-05-26T21:08:23.785Z,100196.63
2019-05-26T21:10:53.677Z,100196.52
2019-05-26T21:13:23.731Z,100196.52
2019-05-26T21:15:53.584Z,100196.84
2019-05-26T21:18:23.499Z,100195.98
2019-05-26T21:20:53.505Z,100194.22
2019-05-26T21:23:23.341Z,100185.98
2019-05-26T21:25:53.365Z,100189.28
2019-05-26T21:28:23.513Z,100181.94
2019-05-26T21:30:53.277Z,100188.64
2019-05-26T21:33:23.060Z,100183.04
2019-05-26T21:35:53.035Z,100183.28
2019-05-26T21:38:23.285Z,100178.42
2019-05-26T21:40:53.227Z,100181.67
2019-05-26T21:43:23.361Z,100180.17
2019-05-26T21:45:53.494Z,100174.50
2019-05-26T21:48:23.305Z,100180.31
2019-05-26T21:50:53.091Z,100176.33
2019-05-26T21:53:22.777Z,100176.57
2019-05-26T21:55:52.950Z,100176.81
2019-05-26T21:58:22.817Z,100179.17
2019-05-26T22:00:53.604Z,100174.70
2019-05-26T22:03:23.718Z,100167.86
2019-05-26T22:05:53.668Z,100170.88
2019-05-26T22:08:23.821Z,100162.84
2019-05-26T22:10:53.927Z,100161.63
2019-05-26T22:13:23.982Z,100163.72
2019-05-26T22:15:53.971Z,100153.91
2019-05-26T22:18:23.957Z,100152.70
2019-05-26T22:20:53.934Z,100145.06
2019-05-26T22:23:24.088Z,100144.09
2019-05-26T22:25:54.242Z,100144.09
2019-05-26T22:28:25.178Z,100147.08
2019-05-26T22:30:55.054Z,100138.15
2019-05-26T22:33:24.951Z,100138.15
2019-05-26T22:35:54.807Z,100138.07
2019-05-26T22:38:24.618Z,100135.02
2019-05-26T22:40:54.568Z,100134.56
2019-05-26T22:43:25.644Z,100126.34
2019-05-26T22:45:55.523Z,100122.91
2019-05-26T22:48:25.357Z,100122.44
2019-05-26T22:50:55.234Z,100112.63
2019-05-26T22:53:25.163Z,100119.78
2019-05-26T22:55:55.102Z,100120.67
2019-05-26T22:58:25.017Z,100117.16
2019-05-26T23:00:54.884Z,100113.64
2019-05-26T23:03:24.699Z,100115.66
2019-05-26T23:05:54.564Z,100116.05
2019-05-26T23:08:24.417Z,100114.70
2019-05-26T23:10:55.461Z,100121.84
2019-05-26T23:13:25.427Z,100112.45
2019-05-26T23:15:55.317Z,100111.96
2019-05-26T23:18:25.227Z,100115.32
2019-05-26T23:20:55.020Z,100103.35
2019-05-26T23:23:24.916Z,100104.55
2019-05-26T23:25:54.686Z,100101.12
2019-05-26T23:28:24.461Z,100090.84
2019-05-26T23:30:54.435Z,100088.61
2019-05-26T23:33:24.205Z,100083.05
2019-05-26T23:35:54.081Z,100084.71
2019-05-26T23:38:24.244Z,100084.71
2019-05-26T23:40:54.124Z,100085.10
2019-05-26T23:43:24.315Z,100081.70
2019-05-26T23:45:54.255Z,100083.67
2019-05-26T23:48:24.084Z,100080.63
2019-05-26T23:50:54.215Z,100076.34
2019-05-26T23:53:24.027Z,100076.66
2019-05-26T23:55:53.888Z,100080.02
2019-05-26T23:58:23.755Z,100082.42
